KMRC/MRC METAR and TAF weather

Enter ICAO airport designator
Station Type Date Time Source
KMRC METAR 2022/11/30 10:10 UTC NOAA

KMRC 301010Z AUTO 30009G25KT 10SM FEW019 BKN029 OVC050 14/11 A2988 RMK A01


Station Type Date Time Source
KMRC Decoded METAR 2022/11/30 10:10 UTC NOAA

Columbia / Maury County, TN, United States (KMRC) 35-33N 087-11W
Nov 30, 2022 - 05:10 AM EST / 2022.11.30 1010 UTC
Wind: from the WNW (300 degrees) at 10 MPH (9 KT) gusting to 29 MPH (25 KT):0
Visibility: 10 mile(s):0
Sky conditions: overcast
Temperature: 57 F (14 C)
Dew Point: 51 F (11 C)
Relative Humidity: 82%
Pressure (altimeter): 29.88 in. Hg (1011 hPa)
ob: KMRC 301010Z AUTO 30009G25KT 10SM FEW019 BKN029 OVC050 14/11 A2988 RMK A01
cycle: 10

Station Type Date Time Source
KMRC TAF 2009/08/31 19:45 UTC NOAA

METAR KMRC 311945Z AUTO 06008KT 10SM CLR 26/12 A3010
RMK AO1 T02550116 $

Example: see airport list